IBE04VL LEVX-LEMD
Flight info
| Callsign | IBE04VL |
|---|---|
| Flight time | N/A |
| Altitude | 30000 |
| Route | BEDAL Z406 ZMR |
| Aircraft | A320/M-SDE3FGHIRWY/LB1 |
Departure
| Time | 2026-04-30 18:54 |
|---|---|
| Airport | Vigo Airport (LEVX) |
Arrival
| Time | N/A |
|---|---|
| Airport | Adolfo Suárez Madrid–Barajas Airport (LEMD) |
| Time | Latitude | Longitude | Altitude | Speed | Heading |
|---|---|---|---|---|---|
| 2026-04-30 18:03 | 42.22547 | -8.63173 | 843 ft | 0 kts | 282° |
| 2026-04-30 18:46 | 42.22543 | -8.63144 | 834 ft | 4 kts | 282° |
| 2026-04-30 18:47 | 42.22538 | -8.63115 | 836 ft | 2 kts | 281° |
| 2026-04-30 18:47 | 42.22534 | -8.63085 | 838 ft | 4 kts | 259° |
| 2026-04-30 18:47 | 42.22547 | -8.63069 | 835 ft | 4 kts | 191° |
| 2026-04-30 18:47 | 42.22572 | -8.63063 | 841 ft | 3 kts | 191° |
| 2026-04-30 18:48 | 42.22575 | -8.63062 | 836 ft | 0 kts | 191° |
| 2026-04-30 18:50 | 42.22554 | -8.63068 | 838 ft | 5 kts | 191° |
| 2026-04-30 18:51 | 42.22500 | -8.63082 | 834 ft | 11 kts | 191° |
| 2026-04-30 18:51 | 42.22401 | -8.63108 | 834 ft | 17 kts | 192° |
| 2026-04-30 18:51 | 42.22276 | -8.63143 | 843 ft | 20 kts | 192° |
| 2026-04-30 18:51 | 42.22148 | -8.63170 | 843 ft | 17 kts | 175° |
| 2026-04-30 18:52 | 42.22112 | -8.63041 | 832 ft | 17 kts | 70° |
| 2026-04-30 18:52 | 42.22213 | -8.62943 | 840 ft | 20 kts | 13° |
| 2026-04-30 18:52 | 42.22239 | -8.62937 | 842 ft | 0 kts | 11° |
| 2026-04-30 18:53 | 42.22266 | -8.62930 | 842 ft | 19 kts | 9° |
| 2026-04-30 18:53 | 42.22638 | -8.62829 | 840 ft | 91 kts | 12° |
| 2026-04-30 18:53 | 42.23470 | -8.62602 | 839 ft | 150 kts | 13° |
| 2026-04-30 18:53 | 42.24530 | -8.62303 | 1386 ft | 157 kts | 5° |
| 2026-04-30 18:54 | 42.25603 | -8.62010 | 2145 ft | 158 kts | 10° |
| 2026-04-30 18:54 | 42.26693 | -8.61703 | 2750 ft | 165 kts | 11° |
| 2026-04-30 18:54 | 42.27891 | -8.61364 | 3085 ft | 185 kts | 11° |
| 2026-04-30 18:54 | 42.29216 | -8.60989 | 3324 ft | 207 kts | 11° |
| 2026-04-30 18:55 | 42.30681 | -8.60575 | 3646 ft | 222 kts | 11° |
| 2026-04-30 18:55 | 42.33598 | -8.58881 | 4460 ft | 249 kts | 57° |
| 2026-04-30 18:55 | 42.34115 | -8.56674 | 5093 ft | 250 kts | 96° |
| 2026-04-30 18:56 | 42.32207 | -8.53131 | 6617 ft | 245 kts | 152° |
| 2026-04-30 18:56 | 42.30681 | -8.51949 | 7118 ft | 262 kts | 141° |
| 2026-04-30 18:56 | 42.29577 | -8.49934 | 7796 ft | 274 kts | 114° |
| 2026-04-30 18:57 | 42.28433 | -8.44920 | 9439 ft | 282 kts | 111° |
| 2026-04-30 18:57 | 42.27771 | -8.42405 | 10235 ft | 285 kts | 112° |
| 2026-04-30 18:57 | 42.27078 | -8.39839 | 10607 ft | 305 kts | 112° |
| 2026-04-30 18:58 | 42.25528 | -8.34021 | 11067 ft | 349 kts | 111° |
| 2026-04-30 18:58 | 42.24714 | -8.30880 | 11598 ft | 357 kts | 111° |
| 2026-04-30 18:58 | 42.23907 | -8.27717 | 12236 ft | 363 kts | 111° |
| 2026-04-30 18:59 | 42.22250 | -8.21173 | 13553 ft | 373 kts | 111° |
| 2026-04-30 19:00 | 42.19684 | -8.11109 | 15409 ft | 384 kts | 111° |
| 2026-04-30 19:00 | 42.18810 | -8.07685 | 16031 ft | 387 kts | 111° |
| 2026-04-30 19:00 | 42.17030 | -8.00755 | 17243 ft | 393 kts | 112° |
| 2026-04-30 19:01 | 42.15226 | -7.93788 | 18374 ft | 398 kts | 112° |
| 2026-04-30 19:01 | 42.14311 | -7.90251 | 18854 ft | 401 kts | 112° |
| 2026-04-30 19:02 | 42.12458 | -7.83087 | 19832 ft | 407 kts | 112° |
| 2026-04-30 19:02 | 42.10584 | -7.75852 | 20787 ft | 412 kts | 112° |
| 2026-04-30 19:03 | 42.08680 | -7.68552 | 21711 ft | 417 kts | 112° |
| 2026-04-30 19:03 | 42.06741 | -7.61128 | 22605 ft | 423 kts | 112° |
| 2026-04-30 19:04 | 42.04780 | -7.53650 | 23472 ft | 428 kts | 112° |
| 2026-04-30 19:04 | 42.02781 | -7.46030 | 24197 ft | 433 kts | 112° |
| 2026-04-30 19:05 | 42.00761 | -7.38356 | 24921 ft | 437 kts | 112° |
| 2026-04-30 19:05 | 41.98716 | -7.30645 | 25640 ft | 441 kts | 112° |
| 2026-04-30 19:06 | 41.96631 | -7.22837 | 26343 ft | 445 kts | 112° |
| 2026-04-30 19:06 | 41.95585 | -7.18920 | 26695 ft | 447 kts | 112° |
| 2026-04-30 19:06 | 41.93480 | -7.11001 | 27360 ft | 451 kts | 112° |
| 2026-04-30 19:07 | 41.91371 | -7.03074 | 27968 ft | 455 kts | 112° |
| 2026-04-30 19:07 | 41.90298 | -6.99068 | 28272 ft | 457 kts | 112° |
| 2026-04-30 19:08 | 41.88129 | -6.90993 | 28871 ft | 460 kts | 112° |
| 2026-04-30 19:08 | 41.85957 | -6.82942 | 29622 ft | 460 kts | 112° |
| 2026-04-30 19:08 | 41.84867 | -6.78912 | 30002 ft | 459 kts | 112° |
| 2026-04-30 19:09 | 41.82688 | -6.70898 | 30091 ft | 454 kts | 112° |
| 2026-04-30 19:09 | 41.80527 | -6.62957 | 30091 ft | 453 kts | 112° |
| 2026-04-30 19:10 | 41.76198 | -6.47127 | 30092 ft | 453 kts | 112° |
| 2026-04-30 19:11 | 41.72373 | -6.35631 | 30091 ft | 449 kts | 123° |
| 2026-04-30 19:12 | 41.69185 | -6.28447 | 30085 ft | 449 kts | 123° |
| 2026-04-30 19:12 | 41.66030 | -6.21380 | 29743 ft | 437 kts | 123° |
| 2026-04-30 19:13 | 41.62990 | -6.14556 | 29185 ft | 416 kts | 123° |
| 2026-04-30 19:13 | 41.60958 | -6.10005 | 28792 ft | 404 kts | 123° |